This is the latest recevied weather packets stored in our database for station/object SR6WXJG. If no packets are shown the sender has not sent any weather packets the latest 10 day(s).
| Time | Temp. | Humidity | Pressure | Rain* | Wind** | Luminosity | Snow |
|---|---|---|---|---|---|---|---|
| 1777869298 | 12.78° C | 72% | 1014 hPa | 0 mm | - | - | - |
| 1777868398 | 12.22° C | 66% | 1014 hPa | 0 mm | - | - | - |
| 1777867497 | 12.22° C | 66% | 1014 hPa | 0 mm | - | - | - |
| 1777866597 | 11.67° C | 71% | 1014 hPa | 0 mm | - | - | - |
| 1777865697 | 11.67° C | 71% | 1014 hPa | 0 mm | - | - | - |
| 1777864796 | 12.22° C | 64% | 1014 hPa | 0 mm | - | - | - |
| 1777863896 | 12.22° C | 62% | 1014 hPa | 0 mm | - | - | - |
| 1777862996 | 11.67° C | 68% | 1014 hPa | 0 mm | - | - | - |
| 1777862095 | 11.67° C | 67% | 1014 hPa | 0 mm | - | - | - |
| 1777861195 | 12.78° C | 61% | 1014 hPa | 0 mm | - | - | - |
| 1777860295 | 12.22° C | 64% | 1014 hPa | 0 mm | - | - | - |
| 1777859394 | 12.22° C | 64% | 1014 hPa | 0 mm | - | - | - |
| 1777858494 | 12.78° C | 64% | 1014 hPa | 0 mm | - | - | - |
| 1777857594 | 13.33° C | 57% | 1014 hPa | 0 mm | - | - | - |
| 1777856693 | 12.78° C | 62% | 1014 hPa | 0 mm | - | - | - |
| 1777855793 | 12.78° C | 62% | 1014 hPa | 0 mm | - | - | - |
| 1777854892 | 12.78° C | 61% | 1014 hPa | 0 mm | - | - | - |
| 1777853992 | 13.89° C | 55% | 1013 hPa | 0 mm | - | - | - |
| 1777853092 | 13.89° C | 53% | 1013 hPa | 0 mm | - | - | - |
| 1777852191 | 13.33° C | 60% | 1014 hPa | 0 mm | - | - | - |
| 1777851291 | 13.33° C | 60% | 1014 hPa | 0 mm | - | - | - |
| 1777850391 | 14.44° C | 51% | 1013 hPa | 0 mm | - | - | - |
| 1777849490 | 15° C | 50% | 1013 hPa | 0 mm | - | - | - |
| 1777848590 | 14.44° C | 58% | 1013 hPa | 0 mm | - | - | - |
| 1777847690 | 14.44° C | 57% | 1013 hPa | 0 mm | - | - | - |
* Rain latest hour (hover to see other rain measurements)
** Current wind speed in m/s (hover to see current wind gust speed)